»·PEaware :: HAWG11 KLSV-KLSV

HAWG11 :: KLSV-KLSV

FLIGHT INFORMATION

Flight Status: Arrived
Operator: Unknown
More flights by this operator :: More flights under this callsign
Pilot: Logan D. (20254)
Aircraft: FAIRCHILD A-10 THUNDERBOLT 2
(A10)
More flights by this aircraft type
Origin: KLSV Nellis AFB
United States
Destination: KLSV Nellis AFB
United States
More flights between these airports :: More routes between these airports
Route: +A10 TAC W
File this flight plan on PilotEdge
Remarks: +CW / FF | A10 Tac Departure to R4806W (in sim ALT 2992)
Altitude:
(Current/Filed)
6,500ft
Speed:
(Current/Filed)
250kts
Departed: 26-Mar-20 04:37 PM
Arrived: 26-Mar-20 05:18 PM
Distance/Time
Traveled:
0nm/0:40
Distance/Time
To Go:
Arrived

Flight Plot

Page will automatically refresh every two minutes.

Flight plan parsing failed; only flown route is shown


Map Options




Map Legend


Flown Route
Filed Route
Departure Airport
Arrival Airport
Navaid (VOR, NDB)
Fix

Horizontal Profiles

Position Reports

Time Latitude Longitude Heading Altitude Ground
Speed
26-Mar-20 16:04 36.229635 -115.024495 87 1850ft 0kts
26-Mar-20 16:05 36.229635 -115.024495 87 1850ft 0kts
26-Mar-20 16:06 36.229635 -115.024495 87 1850ft 0kts
26-Mar-20 16:07 36.229635 -115.024495 87 1850ft 0kts
26-Mar-20 16:08 36.229635 -115.024495 87 1850ft 0kts
26-Mar-20 16:09 36.229635 -115.024495 87 1850ft 0kts
26-Mar-20 16:10 36.229635 -115.024495 87 1850ft 0kts
26-Mar-20 16:11 36.229635 -115.024495 87 1850ft 0kts
26-Mar-20 16:12 36.229635 -115.024495 87 1850ft 0kts
26-Mar-20 16:13 36.229635 -115.024495 87 1850ft 0kts
26-Mar-20 16:14 36.229635 -115.024495 87 1850ft 0kts
26-Mar-20 16:15 36.229635 -115.024495 87 1850ft 0kts
26-Mar-20 16:16 36.229635 -115.024495 87 1850ft 0kts
26-Mar-20 16:17 36.229635 -115.024495 87 1850ft 0kts
26-Mar-20 16:18 36.229635 -115.024495 87 1850ft 0kts
26-Mar-20 16:19 36.229635 -115.024495 87 1850ft 0kts
26-Mar-20 16:20 36.229635 -115.024495 87 1850ft 0kts
26-Mar-20 16:21 36.229635 -115.024495 87 1850ft 0kts
26-Mar-20 16:22 36.229635 -115.024495 87 1850ft 0kts
26-Mar-20 16:23 36.229635 -115.024495 87 1850ft 0kts
26-Mar-20 16:24 36.229635 -115.024495 87 1850ft 0kts
26-Mar-20 16:25 36.229635 -115.024495 87 1850ft 0kts
26-Mar-20 16:26 36.229635 -115.024495 87 1850ft 0kts
26-Mar-20 16:27 36.229635 -115.024495 87 1850ft 0kts
26-Mar-20 16:28 36.230621 -115.026716 287 1850ft 9kts
26-Mar-20 16:29 36.230306 -115.032115 221 1850ft 17kts
26-Mar-20 16:30 36.227574 -115.035115 218 1850ft 11kts
26-Mar-20 16:31 36.225072 -115.037788 218 1849ft 19kts
26-Mar-20 16:32 36.222813 -115.041117 305 1848ft 16kts
26-Mar-20 16:33 36.224324 -115.043227 322 1848ft 0kts
26-Mar-20 16:34 36.224396 -115.043289 324 1848ft 0kts
26-Mar-20 16:35 36.225361 -115.043680 40 1849ft 8kts
26-Mar-20 16:36 36.254734 -115.011675 39 2373ft 210kts
26-Mar-20 16:37 36.310136 -115.019995 294 2981ft 249kts
26-Mar-20 16:38 36.326734 -115.101681 285 3300ft 246kts
26-Mar-20 16:39 36.346564 -115.179396 288 3401ft 244kts
26-Mar-20 16:40 36.373618 -115.257130 299 3656ft 260kts
26-Mar-20 16:41 36.412866 -115.330482 323 5433ft 250kts
26-Mar-20 16:42 36.477562 -115.367468 337 7667ft 258kts
26-Mar-20 16:43 36.544442 -115.405685 333 9498ft 267kts
26-Mar-20 16:44 36.615647 -115.447998 323 9857ft 307kts
26-Mar-20 16:45 36.647155 -115.546421 283 9860ft 316kts
26-Mar-20 16:46 36.668604 -115.652699 283 9860ft 317kts
26-Mar-20 16:47 36.642622 -115.731505 162 9740ft 314kts
26-Mar-20 16:48 36.609977 -115.637125 103 9679ft 318kts
26-Mar-20 16:49 36.648744 -115.565762 349 10200ft 303kts
26-Mar-20 16:50 36.710445 -115.619367 262 9814ft 322kts
26-Mar-20 16:51 36.693397 -115.726340 218 9579ft 322kts
26-Mar-20 16:52 36.654549 -115.666482 80 9351ft 317kts
26-Mar-20 16:53 36.727251 -115.629878 2 8987ft 322kts
26-Mar-20 16:54 36.770482 -115.657304 183 9046ft 246kts
26-Mar-20 16:55 36.719972 -115.596803 149 8691ft 270kts
26-Mar-20 16:56 36.728690 -115.634516 4 4305ft 354kts
26-Mar-20 16:57 36.785951 -115.660450 209 4667ft 281kts
26-Mar-20 16:58 36.718408 -115.627828 138 5520ft 301kts
26-Mar-20 16:59 36.660998 -115.633669 242 5781ft 181kts
26-Mar-20 17:00 36.696845 -115.656522 10 5222ft 227kts
26-Mar-20 17:01 36.743911 -115.619570 145 5399ft 290kts
26-Mar-20 17:02 36.675512 -115.626209 190 6348ft 212kts
26-Mar-20 17:03 36.632439 -115.665919 235 8395ft 172kts
26-Mar-20 17:04 36.583201 -115.671564 162 8556ft 226kts
26-Mar-20 17:05 36.531749 -115.618540 139 7863ft 247kts
26-Mar-20 17:06 36.479521 -115.562601 140 7802ft 245kts
26-Mar-20 17:07 36.424880 -115.505654 138 7543ft 241kts
26-Mar-20 17:09 36.374198 -115.449031 125 7442ft 260kts
26-Mar-20 17:10 36.349027 -115.368786 106 7072ft 230kts
26-Mar-20 17:11 36.328761 -115.294559 107 6610ft 214kts
26-Mar-20 17:12 36.308484 -115.222140 108 6521ft 223kts
26-Mar-20 17:13 36.289516 -115.157195 113 5285ft 193kts
26-Mar-20 17:14 36.262830 -115.103058 177 4860ft 170kts
26-Mar-20 17:15 36.216203 -115.103341 125 3788ft 198kts
26-Mar-20 17:16 36.220223 -115.049276 40 2119ft 154kts
26-Mar-20 17:17 36.241823 -115.025834 39 1855ft 60kts
26-Mar-20 17:18 36.244127 -115.019925 163 1860ft 11kts
26-Mar-20 17:19 36.240528 -115.023650 222 1855ft 15kts
26-Mar-20 17:20 36.237026 -115.027475 221 1852ft 18kts

Navigation Log

Ident Type
Flight plan parsing failed, navigation log unavailable